createdAt,value
2022-10-20T00:10:58.570Z,101381.56
2022-10-20T00:22:32.571Z,101390.13
2022-10-20T00:25:00.350Z,101399.81
2022-10-20T00:27:28.110Z,101396.47
2022-10-20T00:34:31.813Z,101397.47
2022-10-20T00:36:59.437Z,101395.84
2022-10-20T00:39:27.063Z,101395.16
2022-10-20T00:46:40.708Z,101378.69
2022-10-20T00:49:25.867Z,101381.00
2022-10-20T00:51:55.019Z,101384.91
2022-10-20T00:54:27.269Z,101381.75
2022-10-20T00:57:00.282Z,101377.38
2022-10-20T01:03:59.923Z,101378.94
2022-10-20T01:41:03.422Z,101368.94
2022-10-20T04:34:12.806Z,101400.94
2022-10-20T04:45:34.003Z,101401.69
2022-10-20T04:59:46.965Z,101406.13
2022-10-20T05:02:27.480Z,101402.50
2022-10-20T05:05:27.784Z,101420.06
2022-10-20T05:08:48.032Z,101415.13
2022-10-20T05:11:22.243Z,101407.44
2022-10-20T05:14:06.189Z,101415.34
2022-10-20T05:18:01.488Z,101420.31
2022-10-20T05:20:41.209Z,101414.81
2022-10-20T05:23:44.433Z,101425.50
2022-10-20T05:26:19.066Z,101427.84
2022-10-20T05:28:57.000Z,101419.84
2022-10-20T05:32:17.466Z,101417.91
2022-10-20T05:35:10.356Z,101426.06
2022-10-20T05:37:41.242Z,101415.81
2022-10-20T05:40:11.558Z,101406.38
2022-10-20T05:43:01.610Z,101411.09
2022-10-20T05:45:29.274Z,101409.56
2022-10-20T05:48:30.545Z,101406.34
2022-10-20T05:51:22.761Z,101421.81
2022-10-20T05:53:51.612Z,101424.28
2022-10-20T05:56:22.837Z,101418.53
2022-10-20T05:58:53.068Z,101430.56
2022-10-20T06:01:25.951Z,101430.75
2022-10-20T06:04:00.351Z,101440.41
2022-10-20T06:06:31.823Z,101440.97
2022-10-20T06:09:40.450Z,101443.34
2022-10-20T06:12:11.115Z,101436.19
2022-10-20T06:14:47.756Z,101440.50
2022-10-20T06:17:15.360Z,101459.22
2022-10-20T06:20:47.460Z,101458.16
2022-10-20T06:23:18.015Z,101465.84
2022-10-20T06:25:51.146Z,101465.63
2022-10-20T06:28:18.815Z,101462.72
2022-10-20T06:30:47.872Z,101458.31
2022-10-20T06:33:17.030Z,101455.75
2022-10-20T06:35:44.729Z,101461.53
2022-10-20T06:38:14.917Z,101457.34
2022-10-20T06:40:52.871Z,101461.81
2022-10-20T06:43:28.949Z,101462.69
2022-10-20T06:46:08.320Z,101458.69
2022-10-20T06:48:38.265Z,101462.94
2022-10-20T06:51:12.487Z,101466.34
2022-10-20T06:53:46.637Z,101476.13
2022-10-20T06:56:20.301Z,101482.09
2022-10-20T06:58:51.854Z,101479.66
2022-10-20T07:01:26.751Z,101485.41
2022-10-20T07:04:15.373Z,101487.78
2022-10-20T07:06:47.156Z,101483.81
2022-10-20T07:09:24.905Z,101497.31
2022-10-20T07:12:04.013Z,101484.16
2022-10-20T07:14:39.974Z,101481.78
2022-10-20T07:18:22.661Z,101497.88
2022-10-20T07:20:50.661Z,101497.63
2022-10-20T07:23:28.363Z,101501.69
2022-10-20T07:26:05.369Z,101488.75
2022-10-20T07:32:35.236Z,101478.88
2022-10-20T07:35:03.185Z,101485.28
2022-10-20T07:37:31.022Z,101486.84
2022-10-20T07:40:02.146Z,101487.06
2022-10-20T07:42:32.199Z,101483.38
2022-10-20T07:45:02.647Z,101485.84
2022-10-20T07:47:38.101Z,101502.44
2022-10-20T07:50:17.840Z,101482.84
2022-10-20T07:52:52.476Z,101486.06
2022-10-20T07:55:37.672Z,101486.63
2022-10-20T07:58:06.255Z,101494.38
2022-10-20T08:03:11.864Z,101498.13
2022-10-20T08:05:47.010Z,101512.59
2022-10-20T08:08:22.418Z,101503.78
2022-10-20T08:11:45.323Z,101509.75
2022-10-20T08:14:08.173Z,101508.69
2022-10-20T08:16:55.211Z,101520.63
2022-10-20T08:22:29.551Z,101520.59
2022-10-20T08:25:16.989Z,101522.66
2022-10-20T08:27:50.315Z,101517.78
2022-10-20T08:30:24.702Z,101510.75
2022-10-20T08:32:54.568Z,101505.25
2022-10-20T08:35:33.985Z,101502.53
2022-10-20T08:38:01.628Z,101505.84
2022-10-20T08:40:31.193Z,101522.78
2022-10-20T08:42:58.829Z,101514.75
2022-10-20T08:45:29.345Z,101514.13
2022-10-20T08:47:58.786Z,101521.16
2022-10-20T08:50:28.726Z,101524.63
2022-10-20T08:53:00.085Z,101520.22
2022-10-20T08:55:32.597Z,101523.16
2022-10-20T08:58:06.951Z,101531.13
2022-10-20T09:00:37.750Z,101531.63
2022-10-20T09:03:24.195Z,101534.09
2022-10-20T09:05:56.787Z,101545.97
2022-10-20T09:08:29.718Z,101535.25
2022-10-20T09:10:57.301Z,101540.78
2022-10-20T09:13:28.955Z,101550.44
2022-10-20T09:16:03.784Z,101541.97
2022-10-20T09:18:33.078Z,101545.38
2022-10-20T09:21:13.607Z,101544.34
2022-10-20T09:23:44.920Z,101552.25
2022-10-20T09:26:30.912Z,101538.25
2022-10-20T09:29:19.012Z,101544.25
2022-10-20T09:31:55.424Z,101542.03
2022-10-20T09:34:34.275Z,101543.34
2022-10-20T09:37:13.532Z,101537.81
2022-10-20T09:39:49.214Z,101536.44
2022-10-20T09:42:24.747Z,101539.34
2022-10-20T09:45:00.596Z,101526.69
2022-10-20T09:47:29.022Z,101532.38
2022-10-20T09:50:01.059Z,101526.91
2022-10-20T09:52:34.875Z,101532.72
2022-10-20T09:55:19.570Z,101531.13
2022-10-20T09:57:48.379Z,101532.69
2022-10-20T10:00:45.379Z,101527.41
2022-10-20T10:03:23.697Z,101519.25
2022-10-20T10:06:12.647Z,101515.50
2022-10-20T10:08:46.732Z,101520.47
2022-10-20T10:11:19.501Z,101522.19
2022-10-20T10:13:50.006Z,101526.69
2022-10-20T10:16:21.109Z,101527.06
2022-10-20T10:19:03.156Z,101526.63
2022-10-20T10:22:02.427Z,101524.19
2022-10-20T10:24:32.463Z,101517.56
2022-10-20T10:26:59.999Z,101518.91
2022-10-20T10:29:33.884Z,101523.16
2022-10-20T10:32:19.303Z,101512.94
2022-10-20T10:34:58.953Z,101523.31
2022-10-20T10:37:45.989Z,101512.47
2022-10-20T10:40:18.680Z,101511.84
2022-10-20T10:43:14.735Z,101519.16
2022-10-20T10:45:52.488Z,101521.13
2022-10-20T10:48:45.755Z,101514.53
2022-10-20T10:51:48.401Z,101500.28
2022-10-20T10:54:57.200Z,101506.69
2022-10-20T10:58:09.358Z,101499.94
2022-10-20T11:00:58.529Z,101490.41
2022-10-20T11:03:53.773Z,101489.13
2022-10-20T11:06:30.788Z,101486.47
2022-10-20T11:09:03.827Z,101478.06
2022-10-20T11:12:03.537Z,101469.19
2022-10-20T11:14:33.708Z,101475.16
2022-10-20T11:17:35.945Z,101471.81
2022-10-20T11:20:12.302Z,101461.09
2022-10-20T11:22:58.355Z,101462.69
2022-10-20T11:25:34.142Z,101461.50
2022-10-20T11:28:02.018Z,101457.06
2022-10-20T11:30:33.461Z,101454.38
2022-10-20T11:33:22.616Z,101456.56
2022-10-20T11:36:05.366Z,101446.88
2022-10-20T11:38:53.664Z,101456.44
2022-10-20T11:41:45.651Z,101456.03
2022-10-20T11:44:22.556Z,101443.16
2022-10-20T11:47:00.260Z,101442.03
2022-10-20T11:49:29.042Z,101435.63
2022-10-20T11:52:28.781Z,101432.53
2022-10-20T11:55:17.649Z,101426.59
2022-10-20T11:57:51.695Z,101424.66
2022-10-20T12:00:55.178Z,101428.59
2022-10-20T12:03:52.103Z,101432.22
2022-10-20T12:06:28.400Z,101423.03
2022-10-20T12:09:24.173Z,101414.59
2022-10-20T12:11:56.472Z,101409.22
2022-10-20T12:14:30.436Z,101410.81
2022-10-20T12:17:15.145Z,101399.25
2022-10-20T12:19:42.632Z,101388.31
2022-10-20T12:22:16.194Z,101390.53
2022-10-20T12:24:52.490Z,101392.25
2022-10-20T12:27:22.064Z,101377.19
2022-10-20T12:29:51.369Z,101372.72
2022-10-20T12:32:21.627Z,101368.75
2022-10-20T12:34:53.736Z,101354.66
2022-10-20T12:37:23.709Z,101362.53
2022-10-20T12:39:54.154Z,101363.13
2022-10-20T12:42:28.910Z,101352.38
2022-10-20T12:45:02.849Z,101348.44
2022-10-20T12:47:33.080Z,101357.13
2022-10-20T12:50:08.611Z,101365.38
2022-10-20T12:52:40.151Z,101358.31
2022-10-20T12:55:31.820Z,101351.56
2022-10-20T12:58:17.331Z,101350.00
2022-10-20T13:00:47.475Z,101352.22
2022-10-20T13:03:50.940Z,101355.44
2022-10-20T13:06:24.308Z,101338.69
2022-10-20T13:09:03.925Z,101342.50
2022-10-20T13:11:44.870Z,101342.56
2022-10-20T13:14:13.837Z,101338.94
2022-10-20T13:17:27.488Z,101347.78
2022-10-20T13:20:01.956Z,101341.16
2022-10-20T13:22:35.824Z,101345.81
2022-10-20T13:25:07.022Z,101339.28
2022-10-20T13:27:36.341Z,101337.50
2022-10-20T13:30:08.439Z,101329.38
2022-10-20T13:32:53.796Z,101334.88
2022-10-20T13:35:37.185Z,101337.59
2022-10-20T13:38:10.157Z,101342.59
2022-10-20T13:43:56.674Z,101335.25
2022-10-20T13:46:48.649Z,101338.69
2022-10-20T13:49:40.790Z,101337.44
2022-10-20T13:52:15.122Z,101337.75
2022-10-20T13:54:47.557Z,101339.78
2022-10-20T13:57:27.821Z,101343.44
2022-10-20T14:00:20.360Z,101344.03
2022-10-20T14:02:59.653Z,101342.97
2022-10-20T14:05:29.473Z,101346.78
2022-10-20T14:08:03.232Z,101334.31
2022-10-20T14:10:36.688Z,101337.03
2022-10-20T14:13:09.323Z,101332.69
2022-10-20T14:15:37.666Z,101341.72
2022-10-20T14:18:08.563Z,101333.66
2022-10-20T14:20:41.823Z,101337.06
2022-10-20T14:23:10.909Z,101328.25
2022-10-20T14:25:39.641Z,101330.13
2022-10-20T14:28:09.698Z,101329.72
2022-10-20T14:30:40.069Z,101329.88
2022-10-20T14:33:18.556Z,101332.75
2022-10-20T14:36:15.887Z,101336.72
2022-10-20T14:38:48.285Z,101338.78
2022-10-20T14:41:25.992Z,101331.84
2022-10-20T14:44:03.354Z,101336.59
2022-10-20T14:46:45.837Z,101343.81
2022-10-20T14:49:23.592Z,101342.56
2022-10-20T14:52:03.465Z,101342.34
2022-10-20T14:57:08.385Z,101339.03
2022-10-20T14:59:51.307Z,101337.88
2022-10-20T15:02:22.647Z,101332.16
2022-10-20T15:04:53.272Z,101334.03
2022-10-20T15:07:26.477Z,101334.16
2022-10-20T15:10:02.896Z,101333.56
2022-10-20T15:12:42.926Z,101325.22
2022-10-20T15:15:10.477Z,101326.44
2022-10-20T15:17:39.530Z,101317.78
2022-10-20T15:20:37.520Z,101327.47
2022-10-20T15:23:19.218Z,101316.88
2022-10-20T15:26:03.073Z,101307.91
2022-10-20T15:28:43.040Z,101309.84
2022-10-20T15:31:13.256Z,101309.22
2022-10-20T15:33:41.569Z,101311.13
2022-10-20T15:36:15.475Z,101318.22
2022-10-20T15:38:43.393Z,101310.84
2022-10-20T15:41:16.040Z,101309.00
2022-10-20T15:43:43.548Z,101307.81
2022-10-20T15:46:13.011Z,101302.88
2022-10-20T15:48:41.089Z,101306.25
2022-10-20T15:51:29.291Z,101303.56
2022-10-20T15:53:56.852Z,101311.88
2022-10-20T15:56:24.770Z,101293.50
2022-10-20T15:58:52.411Z,101294.25
2022-10-20T16:01:28.696Z,101291.13
2022-10-20T16:03:56.424Z,101286.06
2022-10-20T16:06:24.594Z,101295.63
2022-10-20T16:08:53.467Z,101297.63
2022-10-20T16:11:21.722Z,101293.69
2022-10-20T16:13:49.319Z,101297.38
2022-10-20T16:16:19.471Z,101304.16
2022-10-20T16:18:47.063Z,101298.25
2022-10-20T16:21:17.169Z,101301.50
2022-10-20T16:23:45.079Z,101307.06
2022-10-20T16:26:14.163Z,101300.19
2022-10-20T16:28:41.980Z,101304.66
2022-10-20T16:31:11.825Z,101306.19
2022-10-20T16:33:39.365Z,101296.19
2022-10-20T16:36:09.775Z,101289.56
2022-10-20T16:38:40.176Z,101292.16
2022-10-20T16:41:14.079Z,101302.88
2022-10-20T16:43:44.273Z,101296.44
2022-10-20T16:46:13.774Z,101303.69
2022-10-20T16:48:42.873Z,101304.03
2022-10-20T16:51:15.367Z,101302.50
2022-10-20T16:53:42.935Z,101295.06
2022-10-20T16:56:10.929Z,101294.16
2022-10-20T16:58:38.428Z,101292.31
2022-10-20T17:01:10.938Z,101298.22
2022-10-20T17:06:13.461Z,101299.78
2022-10-20T17:08:41.158Z,101295.69
2022-10-20T17:11:28.291Z,101299.19
2022-10-20T17:13:56.717Z,101315.53
2022-10-20T17:16:35.419Z,101305.47
2022-10-20T17:19:03.208Z,101299.31
2022-10-20T17:21:32.091Z,101308.34
2022-10-20T17:24:00.316Z,101315.69
2022-10-20T17:26:30.911Z,101319.13
2022-10-20T17:29:00.644Z,101317.38
2022-10-20T17:31:29.467Z,101310.63
2022-10-20T17:33:59.923Z,101316.19
2022-10-20T17:36:28.916Z,101314.97
2022-10-20T17:39:02.142Z,101312.00
2022-10-20T17:41:30.377Z,101311.56
2022-10-20T17:44:03.100Z,101307.06
2022-10-20T17:46:31.224Z,101298.88
2022-10-20T17:49:01.817Z,101301.03
2022-10-20T17:51:33.432Z,101296.63
2022-10-20T17:54:04.551Z,101301.50
2022-10-20T17:56:37.435Z,101304.19
2022-10-20T17:59:09.183Z,101305.72
2022-10-20T18:01:41.017Z,101308.81
2022-10-20T18:04:17.530Z,101312.03
2022-10-20T18:06:49.774Z,101305.34
2022-10-20T18:09:19.769Z,101314.69
2022-10-20T18:11:49.952Z,101323.75
2022-10-20T18:14:18.240Z,101320.41
2022-10-20T18:16:48.756Z,101323.00
2022-10-20T18:19:18.637Z,101322.41
2022-10-20T18:21:46.620Z,101334.56
2022-10-20T18:24:15.584Z,101329.47
2022-10-20T18:26:43.954Z,101332.72
2022-10-20T18:29:12.566Z,101325.88
2022-10-20T18:31:45.554Z,101333.88
2022-10-20T18:34:20.475Z,101323.44
2022-10-20T18:36:49.360Z,101325.31
2022-10-20T18:39:17.119Z,101335.00
2022-10-20T18:41:45.576Z,101331.75
2022-10-20T18:44:15.949Z,101330.34
2022-10-20T18:46:44.337Z,101335.66
2022-10-20T18:49:14.471Z,101336.72
2022-10-20T18:51:42.319Z,101330.00
2022-10-20T18:54:09.835Z,101331.44
2022-10-20T18:56:37.441Z,101337.59
2022-10-20T18:59:08.572Z,101328.66
2022-10-20T19:01:38.679Z,101322.19
2022-10-20T19:04:07.166Z,101324.22
2022-10-20T19:06:46.481Z,101325.84
2022-10-20T19:09:19.955Z,101309.09
2022-10-20T19:14:21.414Z,101316.31
2022-10-20T19:16:49.858Z,101312.38
2022-10-20T19:19:17.558Z,101307.03
2022-10-20T19:21:47.484Z,101305.34
2022-10-20T19:24:16.777Z,101299.50
2022-10-20T19:26:57.221Z,101299.38
2022-10-20T19:29:30.470Z,101289.19
2022-10-20T19:32:00.983Z,101294.66
2022-10-20T19:34:32.909Z,101308.44
2022-10-20T19:37:01.517Z,101298.19
2022-10-20T19:39:41.193Z,101300.31
2022-10-20T19:42:11.042Z,101309.00
2022-10-20T19:44:39.566Z,101317.84
2022-10-20T19:47:08.600Z,101317.00
2022-10-20T19:49:36.373Z,101320.34
2022-10-20T19:52:04.954Z,101324.03
2022-10-20T19:54:32.946Z,101316.63
2022-10-20T19:57:00.971Z,101325.41
2022-10-20T19:59:47.748Z,101328.41
2022-10-20T20:02:15.758Z,101334.69
2022-10-20T20:04:43.846Z,101333.25
2022-10-20T20:07:11.458Z,101332.16
2022-10-20T20:09:39.602Z,101329.59
2022-10-20T20:12:07.756Z,101324.75
2022-10-20T20:14:35.626Z,101314.81
2022-10-20T20:17:04.323Z,101320.59
2022-10-20T20:19:32.672Z,101326.44
2022-10-20T20:22:00.350Z,101332.53
2022-10-20T20:24:27.820Z,101339.13
2022-10-20T20:26:55.328Z,101345.03
2022-10-20T20:29:22.860Z,101347.59
2022-10-20T20:31:50.428Z,101340.91
2022-10-20T20:34:17.954Z,101337.88
2022-10-20T20:36:45.572Z,101340.59
2022-10-20T20:39:13.087Z,101338.25
2022-10-20T20:41:41.748Z,101345.44
2022-10-20T20:44:09.271Z,101337.88
2022-10-20T20:46:37.222Z,101336.84
2022-10-20T20:49:05.210Z,101342.88
2022-10-20T20:51:34.004Z,101337.81
2022-10-20T20:54:03.295Z,101343.16
2022-10-20T20:56:31.068Z,101341.91
2022-10-20T20:58:58.515Z,101341.50
2022-10-20T21:01:28.390Z,101334.00
2022-10-20T21:03:58.194Z,101348.72
2022-10-20T21:06:33.699Z,101352.22
2022-10-20T21:09:10.838Z,101360.63
2022-10-20T21:11:38.592Z,101355.53
2022-10-20T21:14:06.024Z,101347.38
2022-10-20T21:16:36.392Z,101363.84
2022-10-20T21:19:07.988Z,101358.69
2022-10-20T21:21:37.973Z,101360.50
2022-10-20T21:24:06.577Z,101354.13
2022-10-20T21:26:34.104Z,101351.78
2022-10-20T21:29:01.586Z,101355.19
2022-10-20T21:31:29.869Z,101355.63
2022-10-20T21:34:00.337Z,101359.78
2022-10-20T21:36:29.522Z,101347.09
2022-10-20T21:38:59.421Z,101341.25
2022-10-20T21:41:29.321Z,101340.88
2022-10-20T21:43:58.703Z,101336.41
2022-10-20T21:46:34.576Z,101337.47
2022-10-20T21:49:13.547Z,101339.53
2022-10-20T21:51:44.105Z,101336.03
2022-10-20T21:54:14.611Z,101337.94
2022-10-20T21:56:44.505Z,101330.69
2022-10-20T21:59:19.067Z,101334.44
2022-10-20T22:01:48.233Z,101335.44
2022-10-20T22:04:17.170Z,101327.78
2022-10-20T22:06:44.784Z,101325.09
2022-10-20T22:09:13.215Z,101316.03
2022-10-20T22:11:44.619Z,101315.25
2022-10-20T22:14:12.669Z,101320.03
2022-10-20T22:16:42.051Z,101319.59
2022-10-20T22:19:14.271Z,101309.44
2022-10-20T22:21:44.374Z,101321.75
2022-10-20T22:24:12.570Z,101318.59
2022-10-20T22:26:58.936Z,101310.94
2022-10-20T22:29:26.621Z,101322.88
2022-10-20T22:31:54.385Z,101321.28
2022-10-20T22:34:21.876Z,101308.38
2022-10-20T22:36:49.423Z,101311.88
2022-10-20T22:39:16.858Z,101319.59
2022-10-20T22:41:44.312Z,101315.09
2022-10-20T22:44:11.876Z,101298.78
2022-10-20T22:46:39.526Z,101298.63
2022-10-20T22:49:07.066Z,101299.28
2022-10-20T22:51:34.548Z,101297.75
2022-10-20T22:54:02.025Z,101297.19
2022-10-20T22:56:29.567Z,101297.94
2022-10-20T22:58:57.055Z,101298.28
2022-10-20T23:01:25.011Z,101299.31
2022-10-20T23:03:52.833Z,101294.22
2022-10-20T23:06:26.789Z,101292.69
2022-10-20T23:08:56.090Z,101303.16
2022-10-20T23:11:24.315Z,101298.91
2022-10-20T23:14:04.058Z,101298.25
2022-10-20T23:16:31.653Z,101302.50
2022-10-20T23:18:59.254Z,101305.03
2022-10-20T23:21:26.778Z,101287.22
2022-10-20T23:23:55.017Z,101296.72
2022-10-20T23:26:22.653Z,101283.41
2022-10-20T23:28:50.243Z,101273.91
2022-10-20T23:31:19.991Z,101280.94
2022-10-20T23:33:49.769Z,101279.47
2022-10-20T23:36:17.585Z,101274.28
2022-10-20T23:38:46.406Z,101270.38
2022-10-20T23:41:14.719Z,101274.34
2022-10-20T23:43:42.197Z,101276.56
2022-10-20T23:46:10.096Z,101276.25
2022-10-20T23:48:38.181Z,101277.63
2022-10-20T23:51:07.118Z,101280.81
2022-10-20T23:53:35.020Z,101285.34
2022-10-20T23:56:03.024Z,101287.13
2022-10-20T23:58:30.513Z,101284.94
